Time;durP1;ratioP1;P1;durP2;ratioP2;P2;SDS_P1;SDS_P2;PMS_P1;PMS_P2;Temp;Humidity;BMP_temperature;BMP_pressure;BME280_temperature;BME280_humidity;BME280_pressure;Samples;Min_cycle;Max_cycle;Signal;HPM_P1;HPM_P2
2023/12/04 00:01:50;;;;;;;3.00;2.45;;;21.70;50.80;;;;;;4855988;28;87516;-65
2023/12/04 00:04:16;;;;;;;2.38;2.17;;;21.60;50.90;;;;;;4856011;28;90262;-66
2023/12/04 00:06:42;;;;;;;3.25;2.50;;;21.60;50.80;;;;;;4873040;28;88073;-65
2023/12/04 00:09:07;;;;;;;2.60;1.88;;;21.60;50.80;;;;;;4855202;28;90754;-65
2023/12/04 00:11:33;;;;;;;3.72;2.53;;;21.60;50.80;;;;;;4855030;28;87412;-65
2023/12/04 00:13:59;;;;;;;3.10;2.60;;;21.60;50.70;;;;;;4872517;28;87746;-67
2023/12/04 00:16:25;;;;;;;4.13;2.40;;;21.50;50.70;;;;;;4855057;28;92064;-65
2023/12/04 00:18:51;;;;;;;3.47;2.47;;;21.50;50.80;;;;;;4855326;28;91960;-65
2023/12/04 00:21:17;;;;;;;2.78;2.40;;;21.50;50.70;;;;;;4855692;28;87373;-66
2023/12/04 00:23:45;;;;;;;3.50;2.45;;;21.50;50.80;;;;;;4876181;28;87271;-67
2023/12/04 00:26:12;;;;;;;2.53;2.28;;;21.50;50.70;;;;;;4873665;28;88148;-64
2023/12/04 00:28:38;;;;;;;3.28;1.90;;;21.40;50.70;;;;;;4854635;28;91145;-63
2023/12/04 00:31:04;;;;;;;2.40;2.20;;;21.40;50.80;;;;;;4855216;28;87262;-66
2023/12/04 00:33:30;;;;;;;3.50;2.38;;;21.40;50.80;;;;;;4871758;28;90234;-64
2023/12/04 00:35:57;;;;;;;3.53;2.10;;;21.30;50.70;;;;;;4873451;28;87620;-66
2023/12/04 00:38:22;;;;;;;2.97;2.45;;;21.30;50.80;;;;;;4854890;28;90711;-66
2023/12/04 00:40:48;;;;;;;3.72;2.35;;;21.30;50.90;;;;;;4854796;28;88931;-66
2023/12/04 00:43:14;;;;;;;2.95;2.10;;;21.30;50.70;;;;;;4854552;28;88759;-66
2023/12/04 00:45:40;;;;;;;3.75;2.53;;;21.30;50.70;;;;;;4872547;28;88651;-66
2023/12/04 00:48:05;;;;;;;3.60;2.63;;;21.20;50.80;;;;;;4873214;28;87403;-65
2023/12/04 00:50:31;;;;;;;4.47;2.30;;;21.20;50.80;;;;;;4856667;28;87332;-64
2023/12/04 00:52:57;;;;;;;3.10;2.30;;;21.20;50.90;;;;;;4871822;28;87283;-66
2023/12/04 00:55:22;;;;;;;3.70;2.40;;;21.20;50.90;;;;;;4871928;28;87798;-65
2023/12/04 00:57:48;;;;;;;2.78;2.22;;;21.20;50.70;;;;;;4862108;28;89508;-65
2023/12/04 01:00:14;;;;;;;3.53;2.45;;;21.20;50.70;;;;;;4873445;28;87275;-64
2023/12/04 01:02:40;;;;;;;2.70;2.10;;;21.10;50.60;;;;;;4874479;28;87397;-65
2023/12/04 01:05:06;;;;;;;2.88;2.38;;;21.10;50.60;;;;;;4873353;28;89114;-66
2023/12/04 01:07:32;;;;;;;2.55;2.20;;;21.10;50.60;;;;;;4874506;28;89973;-65
2023/12/04 01:09:57;;;;;;;2.88;2.20;;;21.10;51.20;;;;;;4856800;28;87420;-65
2023/12/04 01:12:23;;;;;;;3.05;2.20;;;21.10;50.60;;;;;;4873116;28;87714;-64
2023/12/04 01:14:49;;;;;;;2.92;2.30;;;21.10;50.60;;;;;;4875098;28;88632;-64
2023/12/04 01:17:14;;;;;;;2.65;2.45;;;21.00;50.50;;;;;;4875491;28;87840;-64
2023/12/04 01:19:40;;;;;;;2.92;2.63;;;21.00;50.60;;;;;;4856731;28;87033;-65
2023/12/04 01:22:06;;;;;;;2.38;2.15;;;21.00;50.60;;;;;;4873993;28;86863;-65
2023/12/04 01:24:32;;;;;;;2.70;2.22;;;21.00;50.50;;;;;;4872695;28;88263;-67
2023/12/04 01:26:58;;;;;;;3.88;2.30;;;21.00;50.70;;;;;;4855913;28;90931;-65
2023/12/04 01:29:24;;;;;;;2.35;2.13;;;21.00;50.60;;;;;;4854918;28;89022;-65
2023/12/04 01:31:50;;;;;;;2.72;2.30;;;21.00;50.70;;;;;;4862663;28;87466;-67
2023/12/04 01:34:15;;;;;;;3.00;2.10;;;21.00;50.60;;;;;;4871638;28;88634;-66
2023/12/04 01:36:41;;;;;;;3.05;2.33;;;20.90;50.70;;;;;;4875259;28;87404;-66
2023/12/04 01:39:07;;;;;;;2.95;2.15;;;20.90;50.60;;;;;;4858501;28;87530;-66
2023/12/04 01:41:33;;;;;;;3.15;2.75;;;20.90;50.60;;;;;;4876190;28;87589;-65
2023/12/04 01:43:59;;;;;;;3.03;2.38;;;20.80;50.70;;;;;;4875021;28;88999;-66
2023/12/04 01:46:25;;;;;;;2.65;2.20;;;20.80;50.80;;;;;;4876721;28;87805;-66
2023/12/04 01:48:51;;;;;;;3.08;2.28;;;20.80;50.80;;;;;;4858675;28;87231;-65
2023/12/04 01:51:18;;;;;;;3.25;2.35;;;20.80;50.70;;;;;;4858856;28;90021;-66
2023/12/04 01:53:44;;;;;;;2.05;1.83;;;20.80;50.80;;;;;;4875824;28;89505;-65
2023/12/04 01:56:10;;;;;;;3.30;2.10;;;20.80;50.70;;;;;;4858403;28;91912;-66
2023/12/04 01:58:37;;;;;;;2.83;2.47;;;20.80;50.80;;;;;;4858450;28;87326;-65
2023/12/04 02:01:04;;;;;;;2.13;1.92;;;20.80;50.70;;;;;;4857913;28;90346;-65
2023/12/04 02:03:30;;;;;;;2.45;2.20;;;20.80;50.70;;;;;;4875978;28;89092;-66
2023/12/04 02:05:59;;;;;;;3.03;2.10;;;20.70;50.50;;;;;;4876379;28;87115;-65
2023/12/04 02:08:26;;;;;;;4.55;2.05;;;20.70;50.70;;;;;;4858568;28;87691;-66
2023/12/04 02:10:51;;;;;;;2.83;2.08;;;20.70;50.70;;;;;;4858143;28;90051;-67
2023/12/04 02:13:17;;;;;;;3.15;2.10;;;20.70;50.70;;;;;;4875231;28;87207;-65
2023/12/04 02:15:46;;;;;;;3.17;1.92;;;20.70;50.70;;;;;;4858061;28;90600;-64
2023/12/04 02:18:12;;;;;;;3.33;2.60;;;20.70;50.60;;;;;;4857814;28;87908;-67
2023/12/04 02:20:38;;;;;;;2.67;2.30;;;20.70;50.60;;;;;;4858311;28;88978;-65
2023/12/04 02:23:04;;;;;;;2.40;2.10;;;20.60;50.60;;;;;;4876029;28;88594;-65
2023/12/04 02:25:31;;;;;;;4.03;2.25;;;20.60;50.60;;;;;;4874714;28;87770;-65
2023/12/04 02:28:00;;;;;;;3.35;2.40;;;20.60;50.60;;;;;;4857473;28;87165;-65
2023/12/04 02:30:29;;;;;;;3.72;2.42;;;20.60;50.60;;;;;;4857680;28;88679;-65
2023/12/04 02:32:57;;;;;;;2.45;2.25;;;20.60;50.70;;;;;;4857081;28;91147;-66
2023/12/04 02:35:27;;;;;;;2.80;2.05;;;20.60;50.70;;;;;;4855472;28;90569;-65
2023/12/04 02:37:53;;;;;;;2.78;2.10;;;20.60;50.70;;;;;;4875447;28;87009;-65
2023/12/04 02:40:20;;;;;;;2.10;1.73;;;20.60;50.60;;;;;;4857525;28;90172;-65
2023/12/04 02:42:45;;;;;;;2.00;1.80;;;20.50;50.70;;;;;;4872947;28;92240;-65
2023/12/04 02:45:11;;;;;;;2.33;2.10;;;20.50;50.70;;;;;;4857199;28;91515;-65
2023/12/04 02:47:37;;;;;;;2.35;2.00;;;20.50;50.70;;;;;;4873094;28;87901;-66
2023/12/04 02:50:03;;;;;;;2.50;2.08;;;20.50;50.70;;;;;;4872289;28;86925;-64
2023/12/04 02:52:29;;;;;;;2.65;1.98;;;20.50;50.70;;;;;;4857068;28;92437;-65
2023/12/04 02:54:54;;;;;;;2.97;2.17;;;20.50;50.60;;;;;;4856907;28;90993;-65
2023/12/04 02:57:21;;;;;;;2.17;1.90;;;20.50;50.70;;;;;;4875283;28;86935;-65
2023/12/04 02:59:47;;;;;;;3.03;2.15;;;20.50;50.70;;;;;;4864414;28;89990;-65
2023/12/04 03:02:12;;;;;;;2.25;2.03;;;20.50;50.70;;;;;;4873480;28;88026;-67
2023/12/04 03:04:38;;;;;;;2.20;1.95;;;20.40;50.60;;;;;;4873533;28;87582;-64
2023/12/04 03:07:04;;;;;;;2.80;2.45;;;20.40;50.70;;;;;;4873255;28;88682;-64
2023/12/04 03:09:29;;;;;;;2.75;2.42;;;20.40;50.30;;;;;;4872847;28;89360;-67
2023/12/04 03:11:55;;;;;;;2.25;1.83;;;20.40;50.70;;;;;;4873903;28;88023;-66
2023/12/04 03:14:21;;;;;;;2.35;1.88;;;20.40;50.70;;;;;;4872643;28;87269;-64
2023/12/04 03:16:46;;;;;;;2.22;2.03;;;20.40;50.70;;;;;;4874058;28;87487;-64
2023/12/04 03:19:12;;;;;;;3.15;2.22;;;20.40;50.70;;;;;;4874319;28;87726;-64
2023/12/04 03:21:40;;;;;;;2.58;2.00;;;20.40;50.60;;;;;;4874358;28;87847;-64
2023/12/04 03:24:06;;;;;;;2.63;2.25;;;20.30;50.60;;;;;;4857749;28;90979;-64
2023/12/04 03:26:31;;;;;;;2.35;1.95;;;20.40;50.60;;;;;;4857778;28;87476;-64
2023/12/04 03:28:57;;;;;;;2.10;1.90;;;20.30;50.50;;;;;;4874407;28;87726;-64
2023/12/04 03:31:23;;;;;;;2.35;2.10;;;20.30;50.50;;;;;;4873900;28;88610;-64
2023/12/04 03:33:49;;;;;;;2.63;2.10;;;20.30;50.50;;;;;;4857142;28;91868;-66
2023/12/04 03:36:14;;;;;;;2.33;2.00;;;20.30;50.50;;;;;;4874755;28;87560;-64
2023/12/04 03:38:40;;;;;;;2.17;1.98;;;20.30;50.50;;;;;;4858319;28;88478;-65
2023/12/04 03:41:14;;;;;;;3.22;2.30;;;20.30;50.50;;;;;;4874290;28;87478;-64
2023/12/04 03:43:40;;;;;;;2.70;2.20;;;20.30;50.50;;;;;;4874725;28;88700;-65
2023/12/04 03:46:05;;;;;;;2.00;1.80;;;20.30;50.60;;;;;;4857931;28;87313;-64
2023/12/04 03:48:31;;;;;;;2.35;2.00;;;20.30;50.70;;;;;;4873646;28;90201;-64
2023/12/04 03:50:57;;;;;;;2.22;1.83;;;20.20;50.50;;;;;;4875052;28;89060;-66
2023/12/04 03:53:23;;;;;;;2.75;2.15;;;20.20;50.50;;;;;;4873088;28;87719;-64
2023/12/04 03:55:48;;;;;;;2.00;1.80;;;20.20;50.50;;;;;;4855135;28;88404;-64
2023/12/04 03:58:14;;;;;;;3.20;2.13;;;20.20;50.50;;;;;;4873328;28;87590;-65
2023/12/04 04:00:43;;;;;;;2.75;2.00;;;20.20;50.50;;;;;;4855049;28;90522;-65
2023/12/04 04:03:09;;;;;;;2.67;2.10;;;20.20;50.60;;;;;;4874028;28;93299;-64
2023/12/04 04:05:35;;;;;;;2.20;2.00;;;20.20;50.60;;;;;;4856786;28;87763;-65
2023/12/04 04:08:01;;;;;;;2.33;1.80;;;20.20;50.50;;;;;;4856463;28;90779;-64
2023/12/04 04:10:26;;;;;;;2.33;2.13;;;20.20;50.60;;;;;;4855832;28;91183;-65
2023/12/04 04:12:52;;;;;;;2.80;1.90;;;20.10;50.50;;;;;;4873499;28;87673;-64
2023/12/04 04:15:18;;;;;;;1.98;1.73;;;20.20;50.50;;;;;;4872909;28;87770;-64
2023/12/04 04:17:43;;;;;;;1.90;1.58;;;20.20;50.50;;;;;;4857275;28;90543;-64
2023/12/04 04:20:11;;;;;;;2.17;1.63;;;20.10;50.60;;;;;;4873094;28;89065;-64
2023/12/04 04:22:39;;;;;;;2.10;1.77;;;20.10;50.50;;;;;;4874112;28;88749;-63
2023/12/04 04:25:06;;;;;;;2.72;2.42;;;20.10;50.70;;;;;;4873492;28;87917;-64
2023/12/04 04:27:32;;;;;;;2.33;2.13;;;20.10;50.30;;;;;;4856370;28;90630;-64
2023/12/04 04:29:57;;;;;;;2.10;1.90;;;20.10;50.40;;;;;;4874457;28;88129;-64
2023/12/04 04:32:23;;;;;;;2.40;1.80;;;20.10;50.50;;;;;;4856286;28;91044;-65
2023/12/04 04:34:49;;;;;;;1.95;1.70;;;20.10;50.30;;;;;;4873959;28;88398;-66
2023/12/04 04:37:14;;;;;;;2.30;2.00;;;20.10;50.30;;;;;;4855011;28;90410;-66
2023/12/04 04:39:40;;;;;;;2.05;1.77;;;20.00;50.30;;;;;;4871924;28;88747;-64
2023/12/04 04:42:06;;;;;;;2.08;1.70;;;20.00;50.30;;;;;;4854475;28;91352;-65
2023/12/04 04:44:31;;;;;;;2.03;1.80;;;20.00;50.20;;;;;;4855065;28;88316;-65
2023/12/04 04:46:57;;;;;;;2.10;1.90;;;20.00;50.20;;;;;;4872542;28;88309;-65
2023/12/04 04:49:23;;;;;;;2.33;1.90;;;20.00;50.20;;;;;;4855108;28;91458;-64
2023/12/04 04:51:48;;;;;;;2.17;1.63;;;20.00;50.30;;;;;;4855633;28;94745;-64
2023/12/04 04:54:14;;;;;;;2.55;2.00;;;20.00;50.20;;;;;;4874300;28;87108;-64
2023/12/04 04:56:40;;;;;;;2.17;1.90;;;20.00;50.20;;;;;;4873493;28;86840;-65
2023/12/04 04:59:06;;;;;;;2.17;1.98;;;20.00;50.10;;;;;;4872815;28;87801;-65
2023/12/04 05:01:31;;;;;;;2.25;1.73;;;20.00;50.40;;;;;;4855586;28;89275;-66
2023/12/04 05:03:57;;;;;;;2.92;1.90;;;20.00;50.10;;;;;;4854234;28;87798;-65
2023/12/04 05:06:23;;;;;;;2.08;1.80;;;20.00;50.10;;;;;;4872062;28;87940;-66
2023/12/04 05:08:52;;;;;;;2.22;1.58;;;19.90;50.10;;;;;;4855425;28;92895;-64
2023/12/04 05:11:17;;;;;;;2.07;1.87;;;19.90;50.10;;;;;;4854650;28;91604;-64
2023/12/04 05:13:45;;;;;;;2.00;1.73;;;19.90;50.20;;;;;;4872643;28;87094;-64
2023/12/04 05:16:11;;;;;;;1.98;1.80;;;19.90;50.20;;;;;;4855680;28;89979;-65
2023/12/04 05:18:38;;;;;;;2.42;2.22;;;19.90;50.20;;;;;;4854532;28;91710;-64
2023/12/04 05:21:08;;;;;;;1.83;1.73;;;19.90;50.10;;;;;;4855695;28;91174;-64
2023/12/04 05:23:34;;;;;;;1.63;1.48;;;19.90;50.20;;;;;;4870809;28;87246;-64
2023/12/04 05:26:00;;;;;;;2.35;2.10;;;19.90;50.20;;;;;;4872049;28;87119;-65
2023/12/04 05:28:26;;;;;;;1.98;1.77;;;19.90;50.10;;;;;;4855274;28;91287;-65
2023/12/04 05:30:51;;;;;;;1.70;1.60;;;19.90;49.90;;;;;;4872510;28;87875;-64
2023/12/04 05:33:17;;;;;;;2.13;1.80;;;19.80;50.00;;;;;;4872569;28;88470;-65
2023/12/04 05:35:43;;;;;;;2.28;1.80;;;19.80;49.90;;;;;;4855090;28;89859;-65
2023/12/04 05:38:08;;;;;;;2.13;1.83;;;19.80;49.90;;;;;;4872415;28;88267;-64
2023/12/04 05:40:34;;;;;;;1.75;1.65;;;19.80;50.10;;;;;;4872192;28;87774;-65
2023/12/04 05:43:00;;;;;;;1.80;1.70;;;19.80;50.10;;;;;;4872055;28;86991;-66
2023/12/04 05:45:25;;;;;;;2.28;1.88;;;19.80;50.10;;;;;;4871252;28;88211;-65
2023/12/04 05:47:52;;;;;;;2.42;1.85;;;19.80;50.10;;;;;;4853804;28;91883;-66
2023/12/04 05:50:18;;;;;;;1.67;1.52;;;19.80;50.00;;;;;;4871097;28;87876;-63
2023/12/04 05:52:44;;;;;;;2.00;1.80;;;19.80;50.00;;;;;;4872479;28;87450;-63
2023/12/04 05:55:10;;;;;;;1.83;1.50;;;19.80;50.00;;;;;;4872075;28;87785;-64
2023/12/04 05:57:38;;;;;;;3.40;1.90;;;19.80;50.00;;;;;;4854452;28;92309;-64
2023/12/04 06:00:12;;;;;;;2.35;1.63;;;19.80;50.10;;;;;;4854793;28;91969;-65
2023/12/04 06:02:38;;;;;;;1.52;1.42;;;19.70;50.00;;;;;;4873687;28;87643;-64
2023/12/04 06:05:04;;;;;;;2.38;2.00;;;19.70;50.00;;;;;;4872425;28;87530;-64
2023/12/04 06:07:30;;;;;;;1.73;1.50;;;19.70;50.00;;;;;;4854331;28;91276;-64
2023/12/04 06:09:56;;;;;;;1.80;1.70;;;19.70;50.00;;;;;;4871379;28;87211;-65
2023/12/04 06:12:21;;;;;;;1.90;1.75;;;19.70;50.10;;;;;;4854654;28;87411;-64
2023/12/04 06:14:47;;;;;;;1.63;1.42;;;19.70;50.20;;;;;;4873149;28;86873;-64
2023/12/04 06:17:13;;;;;;;2.05;1.60;;;19.70;50.20;;;;;;4872048;28;88054;-65
2023/12/04 06:19:38;;;;;;;1.80;1.65;;;19.70;50.20;;;;;;4872178;28;87822;-64
2023/12/04 06:22:04;;;;;;;1.50;1.40;;;19.70;50.20;;;;;;4875059;28;87900;-64
2023/12/04 06:24:30;;;;;;;2.33;1.65;;;19.70;50.30;;;;;;4857281;28;90459;-63
2023/12/04 06:26:57;;;;;;;1.85;1.70;;;19.70;50.20;;;;;;4858448;28;92456;-64
2023/12/04 06:29:24;;;;;;;1.60;1.50;;;19.60;50.10;;;;;;4857465;28;91291;-64
2023/12/04 06:31:50;;;;;;;1.60;1.45;;;19.60;50.20;;;;;;4876103;28;88026;-66
2023/12/04 06:34:16;;;;;;;2.20;1.77;;;19.60;50.10;;;;;;4857882;28;90217;-66
2023/12/04 06:36:42;;;;;;;1.95;1.50;;;19.60;50.10;;;;;;4857355;28;91067;-65
2023/12/04 06:39:13;;;;;;;1.70;1.60;;;19.60;50.00;;;;;;4858131;28;91411;-64
2023/12/04 06:41:40;;;;;;;2.55;1.70;;;19.60;50.20;;;;;;4858632;28;87215;-64
2023/12/04 06:44:06;;;;;;;2.13;1.70;;;19.60;50.00;;;;;;4875121;28;87133;-66
2023/12/04 06:46:36;;;;;;;2.13;1.50;;;19.60;49.70;;;;;;4872650;28;92106;-64
2023/12/04 06:49:05;;;;;;;1.67;1.58;;;19.60;49.70;;;;;;4854890;28;91320;-64
2023/12/04 06:51:31;;;;;;;1.70;1.60;;;19.60;49.70;;;;;;4858304;28;87692;-63
2023/12/04 06:53:56;;;;;;;2.53;1.70;;;19.60;49.60;;;;;;4876382;28;88097;-64
2023/12/04 06:56:22;;;;;;;1.88;1.55;;;19.50;49.50;;;;;;4875004;28;88741;-64
2023/12/04 06:58:48;;;;;;;2.00;1.40;;;19.60;49.50;;;;;;4874827;28;88070;-65
2023/12/04 07:01:13;;;;;;;2.28;1.65;;;19.50;49.30;;;;;;4875319;28;87916;-65
2023/12/04 07:03:42;;;;;;;2.30;1.60;;;19.60;49.40;;;;;;4859940;28;88876;-65
2023/12/04 07:06:08;;;;;;;1.48;1.38;;;19.50;49.40;;;;;;4876799;28;88102;-65
2023/12/04 07:08:34;;;;;;;1.58;1.48;;;19.50;49.30;;;;;;4858590;28;91661;-65
2023/12/04 07:10:59;;;;;;;2.22;2.03;;;19.50;49.20;;;;;;4864654;28;88584;-64
2023/12/04 07:13:25;;;;;;;1.50;1.40;;;19.50;49.00;;;;;;4874580;28;88783;-64
2023/12/04 07:15:51;;;;;;;2.08;1.63;;;19.50;49.00;;;;;;4874963;28;87682;-64
2023/12/04 07:18:17;;;;;;;1.80;1.50;;;19.50;49.00;;;;;;4874221;28;88980;-65
2023/12/04 07:20:42;;;;;;;1.42;1.33;;;19.50;48.80;;;;;;4860318;28;87392;-63
2023/12/04 07:23:08;;;;;;;1.65;1.35;;;19.50;48.90;;;;;;4876713;28;87389;-62
2023/12/04 07:25:34;;;;;;;1.77;1.65;;;19.50;48.90;;;;;;4873816;28;87839;-62
2023/12/04 07:27:59;;;;;;;1.52;1.42;;;19.50;48.90;;;;;;4875197;28;88155;-61
2023/12/04 07:30:26;;;;;;;1.63;1.52;;;19.50;49.00;;;;;;4874493;28;86990;-63
2023/12/04 07:32:51;;;;;;;2.58;1.60;;;19.40;49.50;;;;;;4857522;28;89601;-62
2023/12/04 07:35:18;;;;;;;2.35;1.55;;;19.50;49.90;;;;;;4873783;28;89129;-63
2023/12/04 07:37:44;;;;;;;4.82;2.25;;;19.50;49.70;;;;;;4856401;28;89850;-63
2023/12/04 07:40:10;;;;;;;7.80;2.30;;;19.50;49.80;;;;;;4856575;28;87685;-62
2023/12/04 07:42:37;;;;;;;5.57;1.50;;;19.50;49.90;;;;;;4855911;28;90627;-62
2023/12/04 07:45:03;;;;;;;3.03;1.98;;;19.50;50.20;;;;;;4873647;28;88626;-63
2023/12/04 07:47:29;;;;;;;3.45;1.55;;;19.60;50.30;;;;;;4856581;28;94861;-62
2023/12/04 07:49:54;;;;;;;2.35;1.92;;;19.60;50.50;;;;;;4875087;28;86989;-63
2023/12/04 07:52:21;;;;;;;4.20;1.50;;;19.60;50.70;;;;;;4874978;28;86569;-63
2023/12/04 07:54:46;;;;;;;6.00;1.73;;;19.70;50.80;;;;;;4854234;28;89459;-63
2023/12/04 07:57:12;;;;;;;5.38;1.52;;;19.70;51.10;;;;;;4874054;28;88344;-64
2023/12/04 07:59:38;;;;;;;1.90;1.20;;;19.80;51.10;;;;;;4857183;28;88599;-65
2023/12/04 08:02:05;;;;;;;3.72;1.63;;;19.80;51.20;;;;;;4857154;28;87772;-64
2023/12/04 08:04:31;;;;;;;4.70;2.35;;;19.80;51.20;;;;;;4856490;28;89967;-64
2023/12/04 08:06:57;;;;;;;3.13;1.55;;;19.90;51.20;;;;;;4855454;28;88894;-63
2023/12/04 08:09:22;;;;;;;4.97;1.60;;;19.90;51.20;;;;;;4871908;28;87459;-64
2023/12/04 08:11:48;;;;;;;3.05;1.45;;;19.90;51.20;;;;;;4872941;28;87531;-63
2023/12/04 08:14:16;;;;;;;2.55;1.52;;;20.00;51.20;;;;;;4862024;28;88600;-65
2023/12/04 08:16:41;;;;;;;4.68;1.50;;;20.00;51.00;;;;;;4852783;28;90304;-64
2023/12/04 08:19:08;;;;;;;3.13;1.50;;;20.00;51.00;;;;;;4870978;28;87035;-63
2023/12/04 08:21:33;;;;;;;3.25;2.05;;;20.10;50.80;;;;;;4861414;28;88754;-65
2023/12/04 08:23:59;;;;;;;4.55;2.05;;;20.10;50.80;;;;;;4871377;28;89378;-64
2023/12/04 08:26:25;;;;;;;6.32;2.17;;;20.10;50.70;;;;;;4855008;28;92110;-63
2023/12/04 08:28:52;;;;;;;7.55;2.63;;;20.10;50.90;;;;;;4855471;28;87563;-67
2023/12/04 08:31:18;;;;;;;6.22;2.30;;;20.10;50.70;;;;;;4845865;28;89258;-68
2023/12/04 08:33:43;;;;;;;5.18;1.88;;;20.10;50.50;;;;;;4856188;28;91054;-69
2023/12/04 08:36:11;;;;;;;8.07;1.92;;;20.20;50.70;;;;;;4866469;28;87794;-68
2023/12/04 08:38:36;;;;;;;4.13;1.58;;;20.20;50.90;;;;;;4849871;28;87713;-69
2023/12/04 08:41:04;;;;;;;3.55;2.00;;;20.20;50.70;;;;;;4865766;28;86996;-68
2023/12/04 08:43:29;;;;;;;3.58;1.85;;;20.20;50.90;;;;;;4865842;28;87493;-68
2023/12/04 08:45:55;;;;;;;3.45;1.80;;;20.20;50.90;;;;;;4865220;28;88241;-68
2023/12/04 08:48:21;;;;;;;2.40;1.40;;;20.20;50.90;;;;;;4845986;28;88902;-67
2023/12/04 08:50:48;;;;;;;3.70;1.75;;;20.20;50.80;;;;;;4848881;28;90072;-66
2023/12/04 08:53:14;;;;;;;3.08;1.67;;;20.30;50.80;;;;;;4847803;28;91239;-68
2023/12/04 08:55:40;;;;;;;3.05;1.75;;;20.30;50.70;;;;;;4846919;28;90891;-68
2023/12/04 08:58:08;;;;;;;6.25;2.00;;;20.30;50.90;;;;;;4866236;28;87437;-67
2023/12/04 09:00:37;;;;;;;6.55;1.75;;;20.40;50.80;;;;;;4865486;28;87925;-67
2023/12/04 09:03:03;;;;;;;5.40;1.90;;;20.40;50.80;;;;;;4863269;28;88216;-67
2023/12/04 09:05:28;;;;;;;5.85;2.58;;;20.40;50.70;;;;;;4846555;28;90780;-67
2023/12/04 09:07:54;;;;;;;3.05;1.70;;;20.30;51.00;;;;;;4866208;28;87946;-68
2023/12/04 09:10:20;;;;;;;2.85;1.48;;;20.40;51.00;;;;;;4864706;28;87759;-67
2023/12/04 09:12:45;;;;;;;4.88;2.22;;;20.40;50.90;;;;;;4848211;28;92152;-68
2023/12/04 09:15:12;;;;;;;7.90;2.80;;;20.40;52.10;;;;;;4865544;28;88737;-66
2023/12/04 09:17:38;;;;;;;7.20;2.47;;;20.50;52.80;;;;;;4849705;28;87693;-63
2023/12/04 09:20:05;;;;;;;6.38;2.55;;;20.50;52.60;;;;;;4844875;28;90382;-66
2023/12/04 09:22:31;;;;;;;9.25;1.98;;;20.50;52.30;;;;;;4847895;28;91186;-67
2023/12/04 09:25:06;;;;;;;11.98;2.42;;;20.50;52.30;;;;;;4849386;28;90554;-69
2023/12/04 09:27:45;;;;;;;6.43;2.75;;;20.50;51.50;;;;;;4851349;28;87581;-67
2023/12/04 09:30:14;;;;;;;;;;;20.50;51.30;;;;;;4844581;28;87285;-68
2023/12/04 09:32:40;;;;;;;8.53;2.10;;;20.50;50.90;;;;;;4870483;28;87844;-65
2023/12/04 09:35:07;;;;;;;4.82;1.52;;;20.50;51.20;;;;;;4847465;28;91170;-69
2023/12/04 09:37:32;;;;;;;4.28;1.67;;;20.50;51.40;;;;;;4864952;28;88463;-67
2023/12/04 09:39:58;;;;;;;5.47;2.05;;;20.50;51.50;;;;;;4862670;28;88032;-67
2023/12/04 09:42:25;;;;;;;3.83;2.00;;;20.60;51.40;;;;;;4863692;28;87948;-66
2023/12/04 09:44:54;;;;;;;2.72;1.70;;;20.60;51.50;;;;;;4852391;28;89269;-68
2023/12/04 09:47:20;;;;;;;3.53;2.17;;;20.60;51.50;;;;;;4850450;28;87276;-65
2023/12/04 09:49:47;;;;;;;5.63;2.03;;;20.60;51.50;;;;;;4864669;28;88097;-67
2023/12/04 09:52:12;;;;;;;3.78;1.50;;;20.60;51.50;;;;;;4849013;28;91117;-68
2023/12/04 09:54:40;;;;;;;4.07;2.15;;;20.70;51.60;;;;;;4855953;28;91172;-63
2023/12/04 09:57:06;;;;;;;3.70;1.85;;;20.70;51.60;;;;;;4851374;28;87450;-69
2023/12/04 09:59:34;;;;;;;6.03;2.30;;;20.70;51.60;;;;;;4852911;28;89719;-66
2023/12/04 10:02:00;;;;;;;7.20;2.78;;;20.70;52.10;;;;;;4865272;28;90272;-65
2023/12/04 10:04:26;;;;;;;5.05;1.90;;;20.70;51.50;;;;;;4849404;28;91782;-66
2023/12/04 10:06:52;;;;;;;3.15;1.48;;;20.70;51.50;;;;;;4858050;28;88098;-62
2023/12/04 10:09:19;;;;;;;7.93;2.63;;;20.70;51.80;;;;;;4856790;28;90347;-64
2023/12/04 10:11:45;;;;;;;4.78;1.80;;;20.70;51.80;;;;;;4872821;28;87643;-66
2023/12/04 10:14:18;;;;;;;7.68;2.00;;;20.70;52.20;;;;;;4915391;23;89685;-94
2023/12/04 10:17:06;;;;;;;4.50;1.80;;;20.70;51.80;;;;;;4870818;28;87250;-91
2023/12/04 10:19:35;;;;;;;4.28;1.70;;;20.80;52.00;;;;;;4882822;28;87869;-93
2023/12/04 10:22:02;;;;;;;;;;;20.80;52.40;;;;;;4871991;28;88324;-95
2023/12/04 10:24:36;;;;;;;5.28;1.77;;;20.80;52.00;;;;;;4878420;28;87429;-90
2023/12/04 10:27:05;;;;;;;6.13;1.55;;;20.80;51.90;;;;;;4880627;28;88499;-92
2023/12/04 10:29:41;;;;;;;;;;;20.80;51.80;;;;;;4883644;28;91940;-91
2023/12/04 10:32:11;;;;;;;6.75;3.00;;;20.80;52.50;;;;;;4875581;28;90517;-93
2023/12/04 10:34:39;;;;;;;7.35;2.78;;;20.80;55.20;;;;;;4879484;28;87556;-90
2023/12/04 10:37:20;;;;;;;;;;;;;;;;;;;;;
2023/12/04 10:39:56;;;;;;;4.80;2.70;;;20.80;55.90;;;;;;4880298;28;88828;-92
2023/12/04 10:42:32;;;;;;;6.78;2.70;;;20.80;57.00;;;;;;4866357;28;89431;-93
2023/12/04 10:44:59;;;;;;;4.13;2.50;;;20.80;55.90;;;;;;4865317;28;89746;-92
2023/12/04 10:47:25;;;;;;;4.18;2.20;;;20.80;55.20;;;;;;4874338;28;87729;-92
2023/12/04 10:49:52;;;;;;;5.35;2.72;;;20.80;54.70;;;;;;4873720;28;88084;-92
2023/12/04 10:52:21;;;;;;;4.43;2.20;;;20.80;54.10;;;;;;4874139;28;90778;-92
2023/12/04 10:54:47;;;;;;;;;;;20.80;53.30;;;;;;4874463;28;91604;-92
2023/12/04 10:57:23;;;;;;;8.57;2.63;;;20.90;53.20;;;;;;4877564;28;86960;-93
2023/12/04 10:59:56;;;;;;;22.17;2.88;;;20.90;52.50;;;;;;4876205;28;89266;-91
2023/12/04 11:02:26;;;;;;;4.63;2.30;;;20.90;52.50;;;;;;4857690;28;88703;-91
2023/12/04 11:04:58;;;;;;;3.80;1.90;;;20.90;52.80;;;;;;4873595;28;88025;-92
2023/12/04 11:07:27;;;;;;;7.57;2.80;;;20.90;52.90;;;;;;4882408;28;87662;-92
2023/12/04 11:09:53;;;;;;;4.45;2.10;;;20.90;52.80;;;;;;4878284;28;86680;-91
2023/12/04 11:12:25;;;;;;;4.28;2.20;;;20.90;52.90;;;;;;4878689;28;89174;-90
2023/12/04 11:14:57;;;;;;;3.90;2.42;;;20.90;53.00;;;;;;4886256;23;90348;-64
2023/12/04 11:17:24;;;;;;;6.43;2.50;;;20.90;53.30;;;;;;4871350;28;90200;-64
2023/12/04 11:19:57;;;;;;;5.32;2.53;;;20.90;53.10;;;;;;4872584;28;87278;-63
2023/12/04 11:22:25;;;;;;;3.70;2.08;;;20.90;52.90;;;;;;4872760;28;87456;-64
2023/12/04 11:24:51;;;;;;;4.07;1.90;;;20.90;53.10;;;;;;4872417;28;89810;-64
2023/12/04 11:27:20;;;;;;;4.28;1.90;;;20.90;53.00;;;;;;4874559;28;87328;-63
2023/12/04 11:29:47;;;;;;;3.15;1.85;;;21.00;53.10;;;;;;4871864;28;89930;-63
2023/12/04 11:32:17;;;;;;;3.75;2.15;;;21.00;52.70;;;;;;4872795;28;91063;-64
2023/12/04 11:34:56;;;;;;;4.20;2.00;;;21.00;53.00;;;;;;4872360;28;88193;-65
2023/12/04 11:37:23;;;;;;;12.90;3.25;;;21.00;52.90;;;;;;4871921;28;87719;-64
2023/12/04 11:39:50;;;;;;;15.48;3.45;;;20.90;52.60;;;;;;4874212;28;88103;-64
2023/12/04 11:42:23;;;;;;;12.50;3.50;;;21.00;52.60;;;;;;4875521;28;89754;-63
2023/12/04 11:44:55;;;;;;;8.23;2.97;;;21.00;52.70;;;;;;4876747;28;88316;-63
2023/12/04 11:47:21;;;;;;;12.40;2.80;;;21.00;52.60;;;;;;4872345;28;87162;-63
2023/12/04 11:49:47;;;;;;;7.50;2.83;;;21.00;52.50;;;;;;4873392;28;87005;-63
2023/12/04 11:52:12;;;;;;;6.32;2.92;;;21.00;52.50;;;;;;4874291;28;87799;-64
2023/12/04 11:55:05;;;;;;;13.75;3.30;;;21.00;52.10;;;;;;4874673;28;88589;-64
2023/12/04 11:57:38;;;;;;;14.20;4.05;;;21.00;52.20;;;;;;4877363;28;87099;-66
2023/12/04 12:00:22;;;;;;;11.60;4.05;;;21.00;52.30;;;;;;4877369;28;87393;-66
2023/12/04 12:03:09;;;;;;;9.38;2.97;;;21.00;52.20;;;;;;4900623;28;95568;-64
2023/12/04 12:05:38;;;;;;;8.40;2.95;;;21.00;52.40;;;;;;4873940;28;95096;-63
2023/12/04 12:08:05;;;;;;;8.15;2.97;;;21.00;52.40;;;;;;4875422;28;88379;-64
2023/12/04 12:10:32;;;;;;;8.85;2.88;;;21.00;52.40;;;;;;4875583;28;87348;-64
2023/12/04 12:12:58;;;;;;;9.07;3.72;;;21.00;52.40;;;;;;4877536;28;88316;-63
2023/12/04 12:15:24;;;;;;;7.93;2.85;;;21.10;52.40;;;;;;4877348;28;87882;-66
2023/12/04 12:17:51;;;;;;;10.65;3.20;;;21.10;52.30;;;;;;4878753;28;87237;-63
2023/12/04 12:20:17;;;;;;;11.85;3.20;;;21.00;52.10;;;;;;4877409;28;88316;-66
2023/12/04 12:22:46;;;;;;;11.77;3.80;;;21.10;52.10;;;;;;4875299;28;88042;-65
2023/12/04 12:25:12;;;;;;;8.25;3.58;;;21.10;51.90;;;;;;4875011;28;87887;-66
2023/12/04 12:27:41;;;;;;;9.48;3.53;;;21.10;51.80;;;;;;4875953;28;86930;-65
2023/12/04 12:30:07;;;;;;;8.85;3.55;;;21.10;51.70;;;;;;4874093;28;87830;-63
2023/12/04 12:32:33;;;;;;;9.65;3.30;;;21.10;51.60;;;;;;4874361;28;88283;-63
2023/12/04 12:34:59;;;;;;;9.05;3.42;;;21.10;51.60;;;;;;4873899;28;90195;-63
2023/12/04 12:37:25;;;;;;;7.13;3.00;;;21.00;51.60;;;;;;4873395;28;87456;-66
2023/12/04 12:39:54;;;;;;;6.38;3.05;;;21.10;51.80;;;;;;4873269;28;87037;-66
2023/12/04 12:42:28;;;;;;;7.97;2.95;;;21.00;51.70;;;;;;4876450;28;88864;-66
2023/12/04 12:44:55;;;;;;;10.77;3.53;;;21.10;51.70;;;;;;4877167;28;87000;-65
2023/12/04 12:47:22;;;;;;;6.75;3.17;;;21.00;51.60;;;;;;4873770;28;87409;-66